createdAt,value
2024-05-09T00:00:29.767Z,101121.63
2024-05-09T00:01:03.126Z,101115.34
2024-05-09T00:01:34.721Z,101117.25
2024-05-09T00:02:06.295Z,101123.53
2024-05-09T00:02:37.950Z,101115.34
2024-05-09T00:03:10.979Z,101123.53
2024-05-09T00:03:43.798Z,101116.44
2024-05-09T00:04:15.509Z,101123.53
2024-05-09T00:04:47.239Z,101119.16
2024-05-09T00:05:19.054Z,101116.69
2024-05-09T00:05:51.000Z,101118.09
2024-05-09T00:06:22.609Z,101128.16
2024-05-09T00:06:54.196Z,101124.63
2024-05-09T00:07:25.813Z,101114.78
2024-05-09T00:07:57.427Z,101121.91
2024-05-09T00:08:29.164Z,101113.16
2024-05-09T00:09:00.809Z,101120.81
2024-05-09T00:09:32.381Z,101113.47
2024-05-09T00:10:05.622Z,101121.91
2024-05-09T00:10:40.072Z,101121.91
2024-05-09T00:11:12.666Z,101114.53
2024-05-09T00:11:44.450Z,101118.09
2024-05-09T00:12:16.139Z,101120.00
2024-05-09T00:12:47.786Z,101117.25
2024-05-09T00:13:19.373Z,101126.53
2024-05-09T00:13:51.078Z,101122.97
2024-05-09T00:14:22.865Z,101118.34
2024-05-09T00:14:54.465Z,101114.78
2024-05-09T00:15:26.051Z,101120.25
2024-05-09T00:15:57.604Z,101121.06
2024-05-09T00:16:29.211Z,101119.16
2024-05-09T00:17:00.850Z,101121.91
2024-05-09T00:17:32.573Z,101119.16
2024-05-09T00:18:04.780Z,101124.63
2024-05-09T00:18:37.174Z,101125.69
2024-05-09T00:19:09.100Z,101121.91
2024-05-09T00:19:43.828Z,101122.16
2024-05-09T00:20:20.516Z,101124.06
2024-05-09T00:20:56.292Z,101121.34
2024-05-09T00:21:27.881Z,101124.63
2024-05-09T00:21:59.477Z,101117.53
2024-05-09T00:22:31.045Z,101115.88
2024-05-09T00:23:02.687Z,101117.53
2024-05-09T00:23:34.420Z,101122.16
2024-05-09T00:24:06.190Z,101121.34
2024-05-09T00:24:37.790Z,101121.34
2024-05-09T00:25:09.416Z,101113.97
2024-05-09T00:25:41.062Z,101117.25
2024-05-09T00:26:12.718Z,101124.88
2024-05-09T00:26:44.267Z,101116.44
2024-05-09T00:27:15.814Z,101120.25
2024-05-09T00:27:47.412Z,101111.00
2024-05-09T00:28:18.980Z,101117.25
2024-05-09T00:28:50.544Z,101113.16
2024-05-09T00:29:22.329Z,101109.34
2024-05-09T00:29:53.920Z,101113.97
2024-05-09T00:30:33.223Z,101114.53
2024-05-09T00:31:07.409Z,101112.91
2024-05-09T00:31:39.010Z,101113.72
2024-05-09T00:32:10.677Z,101113.16
2024-05-09T00:32:42.487Z,101107.69
2024-05-09T00:33:14.447Z,101110.44
2024-05-09T00:33:46.335Z,101104.16
2024-05-09T00:34:18.108Z,101111.50
2024-05-09T00:34:49.878Z,101110.69
2024-05-09T00:35:21.636Z,101114.22
2024-05-09T00:35:53.297Z,101114.22
2024-05-09T00:36:24.895Z,101110.69
2024-05-09T00:36:56.520Z,101110.44
2024-05-09T00:37:28.202Z,101118.59
2024-05-09T00:38:00.105Z,101109.59
2024-05-09T00:38:31.999Z,101118.59
2024-05-09T00:39:03.642Z,101115.88
2024-05-09T00:39:35.232Z,101106.88
2024-05-09T00:40:09.572Z,101119.44
2024-05-09T00:40:43.945Z,101115.88
2024-05-09T00:41:18.910Z,101120.50
2024-05-09T00:41:51.150Z,101111.50
2024-05-09T00:42:22.770Z,101115.88
2024-05-09T00:42:54.375Z,101111.50
2024-05-09T00:43:25.915Z,101116.13
2024-05-09T00:43:57.533Z,101110.69
2024-05-09T00:44:29.235Z,101114.22
2024-05-09T00:45:00.899Z,101107.97
2024-05-09T00:45:35.519Z,101110.69
2024-05-09T00:46:07.066Z,101116.13
2024-05-09T00:46:41.243Z,101109.88
2024-05-09T00:47:13.000Z,101109.03
2024-05-09T00:47:44.813Z,101111.78
2024-05-09T00:48:19.638Z,101106.31
2024-05-09T00:48:52.963Z,101112.59
2024-05-09T00:49:24.741Z,101109.03
2024-05-09T00:49:56.477Z,101109.88
2024-05-09T00:50:35.580Z,101115.31
2024-05-09T00:51:08.885Z,101111.78
2024-05-09T00:51:40.469Z,101113.66
2024-05-09T00:52:12.130Z,101110.69
2024-05-09T00:52:43.804Z,101103.59
2024-05-09T00:53:15.912Z,101113.66
2024-05-09T00:53:47.730Z,101112.59
2024-05-09T00:54:19.307Z,101110.94
2024-05-09T00:54:50.874Z,101108.22
2024-05-09T00:55:22.514Z,101118.31
2024-05-09T00:55:54.107Z,101109.88
2024-05-09T00:56:25.780Z,101111.78
2024-05-09T00:56:57.358Z,101114.75
2024-05-09T00:57:28.923Z,101115.31
2024-05-09T00:58:00.518Z,101108.22
2024-05-09T00:58:32.141Z,101108.22
2024-05-09T00:59:03.877Z,101103.84
2024-05-09T00:59:35.583Z,101107.66
2024-05-09T01:00:12.172Z,101113.94
2024-05-09T01:00:50.146Z,101112.84
2024-05-09T01:01:21.797Z,101108.22
2024-05-09T01:01:53.554Z,101110.94
2024-05-09T01:02:25.249Z,101110.38
2024-05-09T01:02:56.963Z,101118.31
2024-05-09T01:03:28.694Z,101111.22
2024-05-09T01:04:00.456Z,101106.56
2024-05-09T01:04:32.190Z,101114.75
2024-05-09T01:05:03.920Z,101104.94
2024-05-09T01:05:35.873Z,101105.75
2024-05-09T01:06:07.504Z,101110.13
2024-05-09T01:06:39.073Z,101115.56
2024-05-09T01:07:10.624Z,101110.94
2024-05-09T01:07:42.371Z,101112.84
2024-05-09T01:08:14.028Z,101100.28
2024-05-09T01:08:45.669Z,101106.56
2024-05-09T01:09:17.227Z,101106.56
2024-05-09T01:09:48.787Z,101108.47
2024-05-09T01:10:27.714Z,101104.09
2024-05-09T01:11:03.941Z,101103.28
2024-05-09T01:11:35.703Z,101112.28
2024-05-09T01:12:07.521Z,101109.56
2024-05-09T01:12:39.286Z,101111.22
2024-05-09T01:13:10.901Z,101110.66
2024-05-09T01:13:42.635Z,101110.38
2024-05-09T01:14:14.237Z,101111.22
2024-05-09T01:14:45.857Z,101115.00
2024-05-09T01:15:17.483Z,101113.94
2024-05-09T01:15:49.219Z,101116.66
2024-05-09T01:16:20.798Z,101112.03
2024-05-09T01:16:52.478Z,101112.03
2024-05-09T01:17:24.188Z,101109.31
2024-05-09T01:17:56.296Z,101117.47
2024-05-09T01:18:28.296Z,101111.22
2024-05-09T01:18:59.977Z,101110.38
2024-05-09T01:19:31.836Z,101112.84
2024-05-09T01:20:05.950Z,101117.47
2024-05-09T01:20:42.276Z,101107.41
2024-05-09T01:21:16.179Z,101114.75
2024-05-09T01:21:47.889Z,101109.31
2024-05-09T01:22:19.455Z,101106.56
2024-05-09T01:22:51.109Z,101113.09
2024-05-09T01:23:22.772Z,101115.00
2024-05-09T01:23:54.368Z,101111.47
2024-05-09T01:24:26.046Z,101115.00
2024-05-09T01:24:57.631Z,101108.75
2024-05-09T01:25:29.207Z,101112.28
2024-05-09T01:26:00.921Z,101108.75
2024-05-09T01:26:32.655Z,101108.75
2024-05-09T01:27:04.248Z,101113.38
2024-05-09T01:27:35.888Z,101110.66
2024-05-09T01:28:07.559Z,101110.66
2024-05-09T01:28:39.253Z,101107.91
2024-05-09T01:29:10.880Z,101110.66
2024-05-09T01:29:42.455Z,101109.81
2024-05-09T01:30:17.445Z,101113.38
2024-05-09T01:30:52.944Z,101107.09
2024-05-09T01:31:24.519Z,101107.91
2024-05-09T01:31:56.239Z,101116.09
2024-05-09T01:32:28.022Z,101111.47
2024-05-09T01:32:59.889Z,101113.38
2024-05-09T01:33:31.989Z,101111.72
2024-05-09T01:34:03.952Z,101114.19
2024-05-09T01:34:35.514Z,101113.38
2024-05-09T01:35:07.476Z,101114.19
2024-05-09T01:35:39.503Z,101116.09
2024-05-09T01:36:11.222Z,101113.38
2024-05-09T01:36:42.886Z,101114.19
2024-05-09T01:37:14.468Z,101114.19
2024-05-09T01:37:46.059Z,101107.09
2024-05-09T01:38:17.850Z,101113.38
2024-05-09T01:38:49.525Z,101111.72
2024-05-09T01:39:24.110Z,101109.81
2024-05-09T01:39:55.655Z,101107.09
2024-05-09T01:40:36.349Z,101111.72
2024-05-09T01:41:10.864Z,101109.00
2024-05-09T01:41:42.550Z,101111.72
2024-05-09T01:42:14.280Z,101109.81
2024-05-09T01:42:45.919Z,101108.75
2024-05-09T01:43:17.549Z,101107.09
2024-05-09T01:43:49.125Z,101112.53
2024-05-09T01:44:20.829Z,101111.97
2024-05-09T01:44:52.445Z,101111.72
2024-05-09T01:45:23.992Z,101110.91
2024-05-09T01:45:57.938Z,101111.72
2024-05-09T01:46:29.598Z,101105.72
2024-05-09T01:47:01.260Z,101111.97
2024-05-09T01:47:33.245Z,101107.34
2024-05-09T01:48:05.198Z,101103.81
2024-05-09T01:48:37.020Z,101109.25
2024-05-09T01:49:08.752Z,101106.53
2024-05-09T01:49:40.426Z,101101.91
2024-05-09T01:50:16.323Z,101102.97
2024-05-09T01:50:48.222Z,101105.44
2024-05-09T01:51:19.911Z,101101.91
2024-05-09T01:51:51.503Z,101104.63
2024-05-09T01:52:23.136Z,101110.91
2024-05-09T01:52:54.774Z,101106.53
2024-05-09T01:53:26.413Z,101104.88
2024-05-09T01:53:58.078Z,101105.72
2024-05-09T01:54:29.677Z,101105.72
2024-05-09T01:55:04.664Z,101099.16
2024-05-09T01:55:38.020Z,101106.53
2024-05-09T01:56:09.681Z,101110.91
2024-05-09T01:56:41.456Z,101100.00
2024-05-09T01:57:13.136Z,101109.25
2024-05-09T01:57:44.825Z,101104.06
2024-05-09T01:58:17.739Z,101108.19
2024-05-09T01:58:49.393Z,101102.16
2024-05-09T01:59:21.126Z,101104.63
2024-05-09T01:59:52.711Z,101110.06
2024-05-09T02:00:33.883Z,101106.53
2024-05-09T02:01:10.755Z,101104.63
2024-05-09T02:01:56.141Z,101103.81
2024-05-09T02:02:29.413Z,101105.72
2024-05-09T02:03:01.305Z,101103.81
2024-05-09T02:03:33.263Z,101113.06
2024-05-09T02:04:05.063Z,101104.88
2024-05-09T02:04:36.899Z,101105.72
2024-05-09T02:05:08.731Z,101111.16
2024-05-09T02:05:40.471Z,101109.50
2024-05-09T02:06:12.223Z,101108.44
2024-05-09T02:06:43.849Z,101107.34
2024-05-09T02:07:15.489Z,101104.63
2024-05-09T02:07:47.164Z,101103.81
2024-05-09T02:08:19.380Z,101107.34
2024-05-09T02:08:51.253Z,101108.19
2024-05-09T02:09:22.961Z,101102.16
2024-05-09T02:09:54.549Z,101105.72
2024-05-09T02:10:31.976Z,101102.97
2024-05-09T02:11:04.837Z,101103.81
2024-05-09T02:11:36.710Z,101108.44
2024-05-09T02:12:08.608Z,101105.97
2024-05-09T02:12:40.352Z,101105.16
2024-05-09T02:13:11.921Z,101106.78
2024-05-09T02:13:43.628Z,101107.63
2024-05-09T02:14:15.345Z,101106.78
2024-05-09T02:14:46.971Z,101105.97
2024-05-09T02:15:18.554Z,101106.53
2024-05-09T02:15:50.128Z,101106.78
2024-05-09T02:16:21.738Z,101111.16
2024-05-09T02:16:53.351Z,101098.63
2024-05-09T02:17:25.137Z,101107.63
2024-05-09T02:17:57.111Z,101107.63
2024-05-09T02:18:28.965Z,101103.25
2024-05-09T02:19:00.745Z,101106.78
2024-05-09T02:19:32.502Z,101103.25
2024-05-09T02:20:05.967Z,101106.78
2024-05-09T02:20:37.924Z,101100.50
2024-05-09T02:21:09.635Z,101106.78
2024-05-09T02:21:41.247Z,101104.06
2024-05-09T02:22:12.875Z,101097.78
2024-05-09T02:22:44.470Z,101104.31
2024-05-09T02:23:16.068Z,101101.59
2024-05-09T02:23:47.691Z,101104.06
2024-05-09T02:24:19.269Z,101101.34
2024-05-09T02:24:50.827Z,101103.25
2024-05-09T02:25:22.477Z,101099.69
2024-05-09T02:25:54.088Z,101105.97
2024-05-09T02:26:25.803Z,101103.50
2024-05-09T02:26:57.436Z,101107.06
2024-05-09T02:27:30.051Z,101106.50
2024-05-09T02:28:01.650Z,101106.50
2024-05-09T02:28:33.255Z,101101.03
2024-05-09T02:29:04.906Z,101103.50
2024-05-09T02:29:36.631Z,101104.31
2024-05-09T02:30:18.275Z,101104.31
2024-05-09T02:30:54.604Z,101104.06
2024-05-09T02:31:26.176Z,101107.06
2024-05-09T02:31:57.867Z,101113.06
2024-05-09T02:32:29.664Z,101105.97
2024-05-09T02:33:01.558Z,101105.41
2024-05-09T02:33:33.595Z,101107.06
2024-05-09T02:34:05.595Z,101104.31
2024-05-09T02:34:37.327Z,101106.22
2024-05-09T02:35:08.999Z,101109.78
2024-05-09T02:35:40.692Z,101101.59
2024-05-09T02:36:12.304Z,101101.59
2024-05-09T02:36:43.902Z,101103.25
2024-05-09T02:37:15.549Z,101112.50
2024-05-09T02:37:47.167Z,101100.78
2024-05-09T02:38:18.813Z,101108.94
2024-05-09T02:38:50.349Z,101102.69
2024-05-09T02:39:21.906Z,101098.88
2024-05-09T02:39:53.541Z,101101.59
2024-05-09T02:40:33.307Z,101105.41
2024-05-09T02:41:08.744Z,101100.78
2024-05-09T02:41:40.334Z,101103.50
2024-05-09T02:42:11.966Z,101099.69
2024-05-09T02:42:43.605Z,101099.69
2024-05-09T02:43:15.176Z,101098.03
2024-05-09T02:43:46.923Z,101098.88
2024-05-09T02:44:18.727Z,101099.69
2024-05-09T02:44:50.323Z,101105.16
2024-05-09T02:45:21.893Z,101103.25
2024-05-09T02:45:53.456Z,101103.50
2024-05-09T02:46:25.039Z,101096.16
2024-05-09T02:46:56.637Z,101105.16
2024-05-09T02:47:28.340Z,101102.41
2024-05-09T02:48:00.422Z,101102.41
2024-05-09T02:48:32.580Z,101101.59
2024-05-09T02:49:04.330Z,101099.69
2024-05-09T02:49:36.262Z,101104.31
2024-05-09T02:50:08.371Z,101105.16
2024-05-09T02:50:40.442Z,101105.16
2024-05-09T02:51:12.366Z,101098.88
2024-05-09T02:51:43.944Z,101098.03
2024-05-09T02:52:15.527Z,101102.69
2024-05-09T02:52:47.142Z,101106.22
2024-05-09T02:53:18.865Z,101099.94
2024-05-09T02:53:50.600Z,101098.88
2024-05-09T02:54:22.216Z,101099.69
2024-05-09T02:54:53.787Z,101094.50
2024-05-09T02:55:25.390Z,101104.31
2024-05-09T02:55:57.003Z,101105.16
2024-05-09T02:56:28.705Z,101102.41
2024-05-09T02:57:00.355Z,101095.31
2024-05-09T02:57:31.932Z,101103.50
2024-05-09T02:58:03.529Z,101101.59
2024-05-09T02:58:35.121Z,101107.06
2024-05-09T02:59:06.699Z,101099.69
2024-05-09T02:59:38.344Z,101101.59
2024-05-09T03:00:18.406Z,101098.03
2024-05-09T03:00:54.118Z,101107.06
2024-05-09T03:01:25.930Z,101099.13
2024-05-09T03:01:57.641Z,101098.88
2024-05-09T03:02:29.369Z,101104.31
2024-05-09T03:03:01.414Z,101103.50
2024-05-09T03:03:33.494Z,101105.16
2024-05-09T03:04:05.429Z,101102.41
2024-05-09T03:04:37.293Z,101107.06
2024-05-09T03:05:09.064Z,101102.41
2024-05-09T03:05:40.925Z,101108.69
2024-05-09T03:06:12.668Z,101099.69
2024-05-09T03:06:44.251Z,101105.97
2024-05-09T03:07:17.182Z,101098.03
2024-05-09T03:07:49.973Z,101104.31
2024-05-09T03:08:21.611Z,101103.25
2024-05-09T03:08:53.282Z,101103.50
2024-05-09T03:09:27.110Z,101098.88
2024-05-09T03:09:58.659Z,101104.06
2024-05-09T03:10:35.667Z,101093.41
2024-05-09T03:11:09.489Z,101096.16
2024-05-09T03:11:41.197Z,101096.16
2024-05-09T03:12:12.988Z,101094.50
2024-05-09T03:12:44.918Z,101096.16
2024-05-09T03:13:16.674Z,101102.41
2024-05-09T03:13:48.389Z,101090.94
2024-05-09T03:14:20.060Z,101104.31
2024-05-09T03:14:51.745Z,101095.31
2024-05-09T03:15:23.255Z,101102.69
2024-05-09T03:15:54.903Z,101089.88
2024-05-09T03:16:26.551Z,101098.03
2024-05-09T03:16:58.256Z,101092.59
2024-05-09T03:17:30.035Z,101089.88
2024-05-09T03:18:02.000Z,101091.78
2024-05-09T03:18:36.601Z,101094.50
2024-05-09T03:19:08.332Z,101098.88
2024-05-09T03:19:39.979Z,101098.03
2024-05-09T03:20:17.378Z,101099.94
2024-05-09T03:20:55.113Z,101094.25
2024-05-09T03:21:26.715Z,101097.22
2024-05-09T03:21:58.356Z,101094.50
2024-05-09T03:22:29.948Z,101097.22
2024-05-09T03:23:01.718Z,101097.22
2024-05-09T03:23:33.433Z,101099.13
2024-05-09T03:24:05.032Z,101094.50
2024-05-09T03:24:36.615Z,101099.94
2024-05-09T03:25:08.242Z,101095.59
2024-05-09T03:25:39.847Z,101091.78
2024-05-09T03:26:11.464Z,101090.13
2024-05-09T03:26:43.038Z,101108.13
2024-05-09T03:27:14.596Z,101099.94
2024-05-09T03:27:46.191Z,101100.78
2024-05-09T03:28:17.763Z,101098.88
2024-05-09T03:28:49.382Z,101096.16
2024-05-09T03:29:21.004Z,101099.69
2024-05-09T03:29:52.642Z,101100.50
2024-05-09T03:30:31.164Z,101100.78
2024-05-09T03:31:11.352Z,101098.88
2024-05-09T03:31:42.990Z,101100.78
2024-05-09T03:32:14.664Z,101101.84
2024-05-09T03:32:46.404Z,101106.50
2024-05-09T03:33:19.941Z,101106.50
2024-05-09T03:33:52.500Z,101104.59
2024-05-09T03:34:24.255Z,101102.69
2024-05-09T03:34:55.910Z,101109.78
2024-05-09T03:35:27.664Z,101110.03
2024-05-09T03:36:02.387Z,101107.31
2024-05-09T03:36:33.981Z,101107.31
2024-05-09T03:37:05.604Z,101106.50
2024-05-09T03:37:37.178Z,101104.03
2024-05-09T03:38:08.981Z,101104.03
2024-05-09T03:38:40.841Z,101100.47
2024-05-09T03:39:12.473Z,101104.03
2024-05-09T03:39:44.051Z,101099.38
2024-05-09T03:40:20.888Z,101103.75
2024-05-09T03:40:56.263Z,101107.31
2024-05-09T03:41:28.014Z,101108.13
2024-05-09T03:41:59.575Z,101108.13
2024-05-09T03:42:31.127Z,101102.13
2024-05-09T03:43:02.694Z,101101.03
2024-05-09T03:43:34.255Z,101105.41
2024-05-09T03:44:05.898Z,101101.84
2024-05-09T03:44:37.626Z,101104.59
2024-05-09T03:45:09.332Z,101104.59
2024-05-09T03:45:40.924Z,101103.75
2024-05-09T03:46:12.481Z,101102.69
2024-05-09T03:46:44.171Z,101104.59
2024-05-09T03:47:15.859Z,101099.13
2024-05-09T03:47:47.668Z,101097.47
2024-05-09T03:48:19.517Z,101101.84
2024-05-09T03:48:51.424Z,101102.94
2024-05-09T03:49:23.158Z,101098.31
2024-05-09T03:49:54.882Z,101100.22
2024-05-09T03:50:33.608Z,101105.66
2024-05-09T03:51:07.590Z,101098.56
2024-05-09T03:51:39.271Z,101104.84
2024-05-09T03:52:10.822Z,101106.50
2024-05-09T03:52:45.092Z,101102.13
2024-05-09T03:53:16.795Z,101108.38
2024-05-09T03:53:48.457Z,101107.31
2024-05-09T03:54:20.049Z,101103.75
2024-05-09T03:54:51.595Z,101103.75
2024-05-09T03:55:23.310Z,101108.38
2024-05-09T03:55:54.929Z,101105.66
2024-05-09T03:56:26.708Z,101104.03
2024-05-09T03:56:58.313Z,101102.94
2024-05-09T03:57:29.929Z,101106.50
2024-05-09T03:58:01.480Z,101103.75
2024-05-09T03:58:35.779Z,101105.66
2024-05-09T03:59:07.370Z,101104.84
2024-05-09T03:59:39.120Z,101105.66
2024-05-09T04:00:17.663Z,101104.84
2024-05-09T04:00:54.442Z,101102.13
2024-05-09T04:01:26.029Z,101102.94
2024-05-09T04:01:57.755Z,101103.75
2024-05-09T04:02:29.529Z,101105.66
2024-05-09T04:03:01.552Z,101104.84
2024-05-09T04:03:33.580Z,101109.22
2024-05-09T04:04:05.330Z,101105.66
2024-05-09T04:04:37.047Z,101104.03
2024-05-09T04:05:08.789Z,101104.84
2024-05-09T04:05:41.594Z,101104.84
2024-05-09T04:06:14.176Z,101111.13
2024-05-09T04:06:45.782Z,101101.56
2024-05-09T04:07:17.531Z,101101.28
2024-05-09T04:07:49.113Z,101102.38
2024-05-09T04:08:20.814Z,101098.81
2024-05-09T04:08:52.467Z,101101.28
2024-05-09T04:09:24.073Z,101103.19
2024-05-09T04:09:55.692Z,101101.56
2024-05-09T04:10:32.542Z,101102.38
2024-05-09T04:11:05.945Z,101096.09
2024-05-09T04:11:37.782Z,101099.66
2024-05-09T04:12:09.654Z,101099.66
2024-05-09T04:12:41.332Z,101106.19
2024-05-09T04:13:12.961Z,101101.56
2024-05-09T04:13:44.651Z,101100.72
2024-05-09T04:14:16.260Z,101100.72
2024-05-09T04:14:47.911Z,101107.00
2024-05-09T04:15:19.488Z,101105.09
2024-05-09T04:15:51.105Z,101104.28
2024-05-09T04:16:22.709Z,101103.19
2024-05-09T04:16:54.321Z,101103.19
2024-05-09T04:17:26.149Z,101104.84
2024-05-09T04:17:58.116Z,101110.56
2024-05-09T04:18:30.015Z,101104.28
2024-05-09T04:19:01.731Z,101100.72
2024-05-09T04:19:33.496Z,101111.63
2024-05-09T04:20:06.519Z,101107.00
2024-05-09T04:20:41.230Z,101108.91
2024-05-09T04:21:13.202Z,101101.03
2024-05-09T04:21:44.822Z,101105.34
2024-05-09T04:22:16.356Z,101105.34
2024-05-09T04:22:48.074Z,101107.00
2024-05-09T04:23:19.692Z,101105.91
2024-05-09T04:23:51.402Z,101107.00
2024-05-09T04:24:22.989Z,101099.91
2024-05-09T04:24:54.580Z,101102.63
2024-05-09T04:25:26.237Z,101107.00
2024-05-09T04:25:57.855Z,101099.91
2024-05-09T04:26:29.569Z,101107.81
2024-05-09T04:27:01.346Z,101111.63
2024-05-09T04:27:33.017Z,101103.19
2024-05-09T04:28:04.560Z,101107.00
2024-05-09T04:28:36.104Z,101099.91
2024-05-09T04:29:07.684Z,101110.56
2024-05-09T04:29:39.351Z,101103.19
2024-05-09T04:30:18.441Z,101108.66
2024-05-09T04:30:53.364Z,101102.38
2024-05-09T04:31:24.952Z,101103.19
2024-05-09T04:31:56.857Z,101101.28
2024-05-09T04:32:28.837Z,101105.66
2024-05-09T04:33:00.601Z,101106.50
2024-05-09T04:33:32.588Z,101109.47
2024-05-09T04:34:04.588Z,101105.66
2024-05-09T04:34:36.344Z,101104.84
2024-05-09T04:35:08.010Z,101106.50
2024-05-09T04:35:40.006Z,101100.22
2024-05-09T04:36:11.638Z,101103.75
2024-05-09T04:36:44.615Z,101107.31
2024-05-09T04:37:16.393Z,101106.50
2024-05-09T04:37:48.016Z,101111.13
2024-05-09T04:38:19.696Z,101104.84
2024-05-09T04:38:51.462Z,101103.75
2024-05-09T04:39:23.141Z,101108.38
2024-05-09T04:39:54.718Z,101102.69
2024-05-09T04:40:33.063Z,101107.31
2024-05-09T04:41:09.765Z,101108.13
2024-05-09T04:41:41.354Z,101103.50
2024-05-09T04:42:12.977Z,101103.50
2024-05-09T04:42:44.580Z,101099.69
2024-05-09T04:43:16.248Z,101103.50
2024-05-09T04:43:47.910Z,101104.59
2024-05-09T04:44:21.520Z,101106.50
2024-05-09T04:44:55.585Z,101110.03
2024-05-09T04:45:29.041Z,101104.59
2024-05-09T04:46:00.631Z,101108.38
2024-05-09T04:46:32.338Z,101106.50
2024-05-09T04:47:03.917Z,101111.13
2024-05-09T04:47:35.725Z,101109.22
2024-05-09T04:48:07.578Z,101107.56
2024-05-09T04:48:39.261Z,101112.19
2024-05-09T04:49:11.012Z,101111.38
2024-05-09T04:49:42.808Z,101109.47
2024-05-09T04:50:20.856Z,101116.56
2024-05-09T04:50:57.207Z,101111.13
2024-05-09T04:51:28.842Z,101120.94
2024-05-09T04:52:00.492Z,101119.28
2024-05-09T04:52:32.036Z,101107.31
2024-05-09T04:53:03.854Z,101117.13
2024-05-09T04:53:35.562Z,101108.94
2024-05-09T04:54:10.562Z,101117.94
2024-05-09T04:54:42.287Z,101117.94
2024-05-09T04:55:13.833Z,101113.59
2024-05-09T04:55:45.509Z,101115.22
2024-05-09T04:56:17.210Z,101119.59
2024-05-09T04:56:48.827Z,101114.41
2024-05-09T04:57:20.391Z,101118.22
2024-05-09T04:57:51.954Z,101120.38
2024-05-09T04:58:23.540Z,101122.03
2024-05-09T04:58:55.151Z,101116.56
2024-05-09T04:59:26.938Z,101122.03
2024-05-09T04:59:58.633Z,101115.75
2024-05-09T05:00:36.023Z,101119.84
2024-05-09T05:01:09.537Z,101124.50
2024-05-09T05:01:41.148Z,101117.13
2024-05-09T05:02:12.910Z,101116.31
2024-05-09T05:02:44.680Z,101119.84
2024-05-09T05:03:16.933Z,101122.31
2024-05-09T05:03:49.258Z,101120.69
2024-05-09T05:04:21.066Z,101115.22
2024-05-09T05:04:52.762Z,101115.22
2024-05-09T05:05:24.556Z,101114.41
2024-05-09T05:05:56.331Z,101121.75
2024-05-09T05:06:28.004Z,101117.94
2024-05-09T05:07:02.680Z,101112.75
2024-05-09T05:07:34.590Z,101111.94
2024-05-09T05:08:06.234Z,101120.13
2024-05-09T05:08:37.947Z,101108.94
2024-05-09T05:09:09.658Z,101115.47
2024-05-09T05:09:41.211Z,101120.94
2024-05-09T05:10:17.921Z,101112.50
2024-05-09T05:10:56.867Z,101117.94
2024-05-09T05:11:28.714Z,101108.94
2024-05-09T05:12:00.786Z,101116.31
2024-05-09T05:12:32.558Z,101114.41
2024-05-09T05:13:04.196Z,101117.94
2024-05-09T05:13:37.889Z,101114.41
2024-05-09T05:14:11.001Z,101117.69
2024-05-09T05:14:42.580Z,101113.31
2024-05-09T05:15:14.187Z,101117.94
2024-05-09T05:15:47.090Z,101112.50
2024-05-09T05:16:18.697Z,101111.69
2024-05-09T05:16:50.454Z,101120.69
2024-05-09T05:17:22.160Z,101114.41
2024-05-09T05:17:53.977Z,101116.31
2024-05-09T05:18:25.989Z,101111.94
2024-05-09T05:18:57.747Z,101111.69
2024-05-09T05:19:29.499Z,101119.03
2024-05-09T05:20:01.405Z,101117.13
2024-05-09T05:20:34.141Z,101114.41
2024-05-09T05:21:06.126Z,101112.75
2024-05-09T05:21:37.712Z,101113.59
2024-05-09T05:22:09.299Z,101112.75
2024-05-09T05:22:40.876Z,101116.31
2024-05-09T05:23:12.660Z,101116.31
2024-05-09T05:23:44.692Z,101110.84
2024-05-09T05:24:16.340Z,101113.59
2024-05-09T05:24:47.894Z,101111.13
2024-05-09T05:25:19.533Z,101119.84
2024-05-09T05:25:51.220Z,101112.75
2024-05-09T05:26:22.940Z,101109.22
2024-05-09T05:26:54.570Z,101114.66
2024-05-09T05:27:26.145Z,101110.84
2024-05-09T05:27:57.730Z,101105.41
2024-05-09T05:28:29.372Z,101109.78
2024-05-09T05:29:01.021Z,101108.13
2024-05-09T05:29:32.659Z,101115.22
2024-05-09T05:30:07.348Z,101111.41
2024-05-09T05:30:41.020Z,101113.06
2024-05-09T05:31:12.670Z,101113.88
2024-05-09T05:31:44.384Z,101111.16
2024-05-09T05:32:16.230Z,101113.06
2024-05-09T05:32:48.104Z,101115.78
2024-05-09T05:33:20.262Z,101119.34
2024-05-09T05:33:52.247Z,101111.16
2024-05-09T05:34:23.865Z,101110.34
2024-05-09T05:34:55.478Z,101110.34
2024-05-09T05:35:27.280Z,101115.78
2024-05-09T05:35:59.055Z,101113.06
2024-05-09T05:36:30.649Z,101113.06
2024-05-09T05:37:02.234Z,101111.97
2024-05-09T05:37:33.853Z,101111.97
2024-05-09T05:38:05.471Z,101113.88
2024-05-09T05:38:37.224Z,101106.53
2024-05-09T05:39:08.853Z,101112.81
2024-05-09T05:39:40.396Z,101114.44
2024-05-09T05:40:17.442Z,101115.28
2024-05-09T05:40:52.590Z,101115.28
2024-05-09T05:41:24.253Z,101110.91
2024-05-09T05:41:55.902Z,101111.72
2024-05-09T05:42:29.185Z,101120.72
2024-05-09T05:43:00.758Z,101116.34
2024-05-09T05:43:32.394Z,101116.34
2024-05-09T05:44:04.033Z,101119.09
2024-05-09T05:44:35.756Z,101118.00
2024-05-09T05:45:09.653Z,101118.81
2024-05-09T05:45:41.491Z,101117.19
2024-05-09T05:46:13.089Z,101116.34
2024-05-09T05:46:44.730Z,101117.19
2024-05-09T05:47:16.521Z,101117.19
2024-05-09T05:47:48.428Z,101115.28
2024-05-09T05:48:20.310Z,101110.91
2024-05-09T05:48:52.072Z,101118.00
2024-05-09T05:49:23.997Z,101118.00
2024-05-09T05:49:55.663Z,101112.53
2024-05-09T05:50:32.985Z,101111.72
2024-05-09T05:51:08.033Z,101117.19
2024-05-09T05:51:39.703Z,101116.34
2024-05-09T05:52:11.374Z,101123.44
2024-05-09T05:52:42.936Z,101117.19
2024-05-09T05:53:14.709Z,101118.81
2024-05-09T05:53:46.482Z,101122.63
2024-05-09T05:54:18.190Z,101117.19
2024-05-09T05:54:49.783Z,101115.28
2024-05-09T05:55:21.364Z,101118.00
2024-05-09T05:55:53.020Z,101115.28
2024-05-09T05:56:24.686Z,101122.63
2024-05-09T05:56:56.295Z,101118.00
2024-05-09T05:57:28.025Z,101119.09
2024-05-09T05:57:59.567Z,101118.81
2024-05-09T05:58:31.115Z,101121.81
2024-05-09T05:59:02.727Z,101122.63
2024-05-09T05:59:34.465Z,101120.16
2024-05-09T06:00:09.267Z,101121.81
2024-05-09T06:00:42.133Z,101114.72
2024-05-09T06:01:14.358Z,101117.44
2024-05-09T06:01:46.006Z,101109.25
2024-05-09T06:02:17.705Z,101120.16
2024-05-09T06:02:49.541Z,101117.44
2024-05-09T06:03:21.273Z,101115.53
2024-05-09T06:03:52.962Z,101116.34
2024-05-09T06:04:24.668Z,101118.00
2024-05-09T06:04:56.431Z,101111.72
2024-05-09T06:05:28.113Z,101115.53
2024-05-09T06:05:59.920Z,101119.91
2024-05-09T06:06:31.615Z,101115.53
2024-05-09T06:07:03.191Z,101116.34
2024-05-09T06:07:34.738Z,101110.06
2024-05-09T06:08:06.358Z,101119.09
2024-05-09T06:08:37.975Z,101122.63